sensor_id;sensor_type;location;lat;lon;timestamp;temperature;humidity
19090;DHT22;9677;50.656;13.064;2022-08-19T00:00:35;24.50;52.70
19090;DHT22;9677;50.656;13.064;2022-08-19T00:03:07;24.60;52.80
19090;DHT22;9677;50.656;13.064;2022-08-19T00:05:36;24.50;52.90
19090;DHT22;9677;50.656;13.064;2022-08-19T00:08:06;24.50;52.80
19090;DHT22;9677;50.656;13.064;2022-08-19T00:10:38;24.60;52.70
19090;DHT22;9677;50.656;13.064;2022-08-19T00:13:09;24.50;52.90
19090;DHT22;9677;50.656;13.064;2022-08-19T00:15:38;24.50;52.90
19090;DHT22;9677;50.656;13.064;2022-08-19T00:18:15;24.60;52.90
19090;DHT22;9677;50.656;13.064;2022-08-19T00:20:43;24.60;53.10
19090;DHT22;9677;50.656;13.064;2022-08-19T00:23:15;24.60;53.10
19090;DHT22;9677;50.656;13.064;2022-08-19T00:25:44;24.40;53.00
19090;DHT22;9677;50.656;13.064;2022-08-19T00:28:15;24.50;53.10
19090;DHT22;9677;50.656;13.064;2022-08-19T00:30:44;24.50;53.10
19090;DHT22;9677;50.656;13.064;2022-08-19T00:33:15;24.50;53.10
19090;DHT22;9677;50.656;13.064;2022-08-19T00:35:48;24.50;53.30
19090;DHT22;9677;50.656;13.064;2022-08-19T00:38:29;24.70;53.20
19090;DHT22;9677;50.656;13.064;2022-08-19T00:41:03;24.50;53.20
19090;DHT22;9677;50.656;13.064;2022-08-19T00:43:33;24.50;53.40
19090;DHT22;9677;50.656;13.064;2022-08-19T00:46:05;24.50;53.00
19090;DHT22;9677;50.656;13.064;2022-08-19T00:48:39;24.50;53.40
19090;DHT22;9677;50.656;13.064;2022-08-19T00:51:09;24.20;53.40
19090;DHT22;9677;50.656;13.064;2022-08-19T00:53:40;24.40;53.20
19090;DHT22;9677;50.656;13.064;2022-08-19T00:56:14;24.30;53.20
19090;DHT22;9677;50.656;13.064;2022-08-19T00:58:47;24.40;53.40
19090;DHT22;9677;50.656;13.064;2022-08-19T01:01:27;24.40;53.50
19090;DHT22;9677;50.656;13.064;2022-08-19T01:03:58;24.40;54.20
19090;DHT22;9677;50.656;13.064;2022-08-19T01:06:32;24.30;53.40
19090;DHT22;9677;50.656;13.064;2022-08-19T01:09:05;24.30;53.60
19090;DHT22;9677;50.656;13.064;2022-08-19T01:11:44;24.30;53.60
19090;DHT22;9677;50.656;13.064;2022-08-19T01:23:15;24.30;54.30
19090;DHT22;9677;50.656;13.064;2022-08-19T01:25:52;24.50;54.10
19090;DHT22;9677;50.656;13.064;2022-08-19T01:28:24;24.30;54.10
19090;DHT22;9677;50.656;13.064;2022-08-19T01:31:14;24.40;54.10
19090;DHT22;9677;50.656;13.064;2022-08-19T01:33:56;24.40;54.30
19090;DHT22;9677;50.656;13.064;2022-08-19T01:36:31;24.30;54.00
19090;DHT22;9677;50.656;13.064;2022-08-19T01:39:10;24.30;54.00
19090;DHT22;9677;50.656;13.064;2022-08-19T01:41:42;24.40;54.10
19090;DHT22;9677;50.656;13.064;2022-08-19T01:44:11;24.40;53.70
19090;DHT22;9677;50.656;13.064;2022-08-19T01:46:47;24.40;53.90
19090;DHT22;9677;50.656;13.064;2022-08-19T01:49:19;24.40;54.10
19090;DHT22;9677;50.656;13.064;2022-08-19T01:51:50;24.40;54.00
19090;DHT22;9677;50.656;13.064;2022-08-19T01:54:25;24.40;53.90
19090;DHT22;9677;50.656;13.064;2022-08-19T01:56:59;24.50;53.90
19090;DHT22;9677;50.656;13.064;2022-08-19T01:59:30;24.50;54.20
19090;DHT22;9677;50.656;13.064;2022-08-19T02:02:05;24.50;54.00
19090;DHT22;9677;50.656;13.064;2022-08-19T02:05:11;24.40;54.00
19090;DHT22;9677;50.656;13.064;2022-08-19T02:07:43;24.60;53.90
19090;DHT22;9677;50.656;13.064;2022-08-19T02:10:16;24.40;53.70
19090;DHT22;9677;50.656;13.064;2022-08-19T02:12:49;24.60;54.00
19090;DHT22;9677;50.656;13.064;2022-08-19T02:15:20;24.60;53.80
19090;DHT22;9677;50.656;13.064;2022-08-19T02:17:49;24.70;53.90
19090;DHT22;9677;50.656;13.064;2022-08-19T02:26:27;24.70;54.20
19090;DHT22;9677;50.656;13.064;2022-08-19T02:28:56;24.70;53.90
19090;DHT22;9677;50.656;13.064;2022-08-19T02:31:26;24.80;54.00
19090;DHT22;9677;50.656;13.064;2022-08-19T02:33:56;24.80;54.60
19090;DHT22;9677;50.656;13.064;2022-08-19T02:36:27;24.80;53.90
19090;DHT22;9677;50.656;13.064;2022-08-19T02:38:57;24.70;53.90
19090;DHT22;9677;50.656;13.064;2022-08-19T02:41:31;24.70;53.30
19090;DHT22;9677;50.656;13.064;2022-08-19T02:50:45;24.70;54.20
19090;DHT22;9677;50.656;13.064;2022-08-19T02:53:19;24.80;53.90
19090;DHT22;9677;50.656;13.064;2022-08-19T02:55:50;24.70;53.90
19090;DHT22;9677;50.656;13.064;2022-08-19T02:58:23;24.80;53.90
19090;DHT22;9677;50.656;13.064;2022-08-19T03:01:27;24.90;53.90
19090;DHT22;9677;50.656;13.064;2022-08-19T03:04:06;24.70;53.80
19090;DHT22;9677;50.656;13.064;2022-08-19T03:06:52;24.70;53.90
19090;DHT22;9677;50.656;13.064;2022-08-19T03:19:04;24.80;54.50
19090;DHT22;9677;50.656;13.064;2022-08-19T03:21:37;24.80;54.20
19090;DHT22;9677;50.656;13.064;2022-08-19T03:24:40;24.80;53.60
19090;DHT22;9677;50.656;13.064;2022-08-19T03:27:47;24.70;53.70
19090;DHT22;9677;50.656;13.064;2022-08-19T03:30:56;24.80;54.40
19090;DHT22;9677;50.656;13.064;2022-08-19T03:33:54;24.70;54.60
19090;DHT22;9677;50.656;13.064;2022-08-19T03:40:04;24.80;55.20
19090;DHT22;9677;50.656;13.064;2022-08-19T03:42:46;24.70;54.20
19090;DHT22;9677;50.656;13.064;2022-08-19T03:45:16;24.90;54.30
19090;DHT22;9677;50.656;13.064;2022-08-19T03:54:24;24.70;54.60
19090;DHT22;9677;50.656;13.064;2022-08-19T03:57:01;24.70;54.20
19090;DHT22;9677;50.656;13.064;2022-08-19T03:59:33;24.60;54.10
19090;DHT22;9677;50.656;13.064;2022-08-19T04:02:07;24.60;54.30
19090;DHT22;9677;50.656;13.064;2022-08-19T04:04:38;24.70;54.50
19090;DHT22;9677;50.656;13.064;2022-08-19T04:07:09;24.70;54.40
19090;DHT22;9677;50.656;13.064;2022-08-19T04:09:40;24.60;54.30
19090;DHT22;9677;50.656;13.064;2022-08-19T04:12:11;24.60;54.20
19090;DHT22;9677;50.656;13.064;2022-08-19T04:14:39;24.60;54.50
19090;DHT22;9677;50.656;13.064;2022-08-19T04:17:08;24.60;54.50
19090;DHT22;9677;50.656;13.064;2022-08-19T04:19:40;24.60;54.60
19090;DHT22;9677;50.656;13.064;2022-08-19T04:22:10;24.60;54.50
19090;DHT22;9677;50.656;13.064;2022-08-19T04:24:40;24.60;54.90
19090;DHT22;9677;50.656;13.064;2022-08-19T04:27:11;24.50;54.40
19090;DHT22;9677;50.656;13.064;2022-08-19T04:33:24;24.50;55.60
19090;DHT22;9677;50.656;13.064;2022-08-19T04:36:21;24.40;54.90
19090;DHT22;9677;50.656;13.064;2022-08-19T04:39:00;24.40;55.50
19090;DHT22;9677;50.656;13.064;2022-08-19T04:41:31;24.30;54.80
19090;DHT22;9677;50.656;13.064;2022-08-19T04:44:20;24.40;54.90
19090;DHT22;9677;50.656;13.064;2022-08-19T04:46:50;24.40;55.10
19090;DHT22;9677;50.656;13.064;2022-08-19T04:49:21;24.40;55.00
19090;DHT22;9677;50.656;13.064;2022-08-19T04:51:53;24.40;55.10
19090;DHT22;9677;50.656;13.064;2022-08-19T04:54:25;24.40;55.10
19090;DHT22;9677;50.656;13.064;2022-08-19T04:57:19;24.80;55.40
19090;DHT22;9677;50.656;13.064;2022-08-19T04:59:55;24.90;55.50
19090;DHT22;9677;50.656;13.064;2022-08-19T05:02:25;24.40;55.40
19090;DHT22;9677;50.656;13.064;2022-08-19T05:04:57;24.40;55.30
19090;DHT22;9677;50.656;13.064;2022-08-19T05:07:28;24.40;55.60
19090;DHT22;9677;50.656;13.064;2022-08-19T05:10:00;24.30;55.20
19090;DHT22;9677;50.656;13.064;2022-08-19T05:12:30;24.20;55.20
19090;DHT22;9677;50.656;13.064;2022-08-19T05:15:03;24.30;55.60
19090;DHT22;9677;50.656;13.064;2022-08-19T05:17:32;24.30;55.80
19090;DHT22;9677;50.656;13.064;2022-08-19T05:20:06;24.30;55.70
19090;DHT22;9677;50.656;13.064;2022-08-19T05:22:53;24.20;55.80
19090;DHT22;9677;50.656;13.064;2022-08-19T05:25:22;24.20;55.80
19090;DHT22;9677;50.656;13.064;2022-08-19T05:27:52;24.10;55.80
19090;DHT22;9677;50.656;13.064;2022-08-19T05:30:22;24.20;55.90
19090;DHT22;9677;50.656;13.064;2022-08-19T05:33:10;24.20;56.00
19090;DHT22;9677;50.656;13.064;2022-08-19T05:35:39;24.20;56.00
19090;DHT22;9677;50.656;13.064;2022-08-19T05:38:08;24.20;56.10
19090;DHT22;9677;50.656;13.064;2022-08-19T05:40:38;24.20;56.20
19090;DHT22;9677;50.656;13.064;2022-08-19T05:43:07;24.20;56.20
19090;DHT22;9677;50.656;13.064;2022-08-19T05:45:40;24.20;56.30
19090;DHT22;9677;50.656;13.064;2022-08-19T05:48:09;24.20;56.50
19090;DHT22;9677;50.656;13.064;2022-08-19T05:50:38;24.20;56.30
19090;DHT22;9677;50.656;13.064;2022-08-19T05:53:08;24.20;56.40
19090;DHT22;9677;50.656;13.064;2022-08-19T05:55:37;24.30;56.40
19090;DHT22;9677;50.656;13.064;2022-08-19T05:58:06;24.20;56.30
19090;DHT22;9677;50.656;13.064;2022-08-19T06:00:35;24.20;56.40
19090;DHT22;9677;50.656;13.064;2022-08-19T06:03:06;24.20;56.40
19090;DHT22;9677;50.656;13.064;2022-08-19T06:05:39;24.10;56.40
19090;DHT22;9677;50.656;13.064;2022-08-19T06:08:18;24.10;56.50
19090;DHT22;9677;50.656;13.064;2022-08-19T06:11:13;24.10;56.50
19090;DHT22;9677;50.656;13.064;2022-08-19T06:13:43;24.10;57.10
19090;DHT22;9677;50.656;13.064;2022-08-19T06:16:16;24.10;56.60
19090;DHT22;9677;50.656;13.064;2022-08-19T06:18:50;24.10;56.70
19090;DHT22;9677;50.656;13.064;2022-08-19T06:21:20;24.10;56.80
19090;DHT22;9677;50.656;13.064;2022-08-19T06:23:50;24.10;57.40
19090;DHT22;9677;50.656;13.064;2022-08-19T06:26:19;24.20;56.90
19090;DHT22;9677;50.656;13.064;2022-08-19T06:28:49;24.20;56.80
19090;DHT22;9677;50.656;13.064;2022-08-19T06:31:41;24.20;56.80
19090;DHT22;9677;50.656;13.064;2022-08-19T06:34:12;24.20;57.00
19090;DHT22;9677;50.656;13.064;2022-08-19T06:36:42;24.20;57.00
19090;DHT22;9677;50.656;13.064;2022-08-19T06:39:14;24.30;56.90
19090;DHT22;9677;50.656;13.064;2022-08-19T06:41:46;24.30;57.00
19090;DHT22;9677;50.656;13.064;2022-08-19T06:44:23;24.30;57.00
19090;DHT22;9677;50.656;13.064;2022-08-19T06:46:54;24.30;56.90
19090;DHT22;9677;50.656;13.064;2022-08-19T06:49:24;24.30;56.80
19090;DHT22;9677;50.656;13.064;2022-08-19T06:51:59;24.30;57.00
19090;DHT22;9677;50.656;13.064;2022-08-19T06:54:29;24.40;56.90
19090;DHT22;9677;50.656;13.064;2022-08-19T06:57:04;24.40;56.90
19090;DHT22;9677;50.656;13.064;2022-08-19T06:59:33;24.40;56.90
19090;DHT22;9677;50.656;13.064;2022-08-19T07:02:04;24.40;56.90
19090;DHT22;9677;50.656;13.064;2022-08-19T07:04:36;24.40;57.00
19090;DHT22;9677;50.656;13.064;2022-08-19T07:07:10;24.40;57.10
19090;DHT22;9677;50.656;13.064;2022-08-19T07:09:48;24.40;56.80
19090;DHT22;9677;50.656;13.064;2022-08-19T07:12:31;24.50;57.10
19090;DHT22;9677;50.656;13.064;2022-08-19T07:15:05;24.40;57.00
19090;DHT22;9677;50.656;13.064;2022-08-19T07:17:35;24.30;56.90
19090;DHT22;9677;50.656;13.064;2022-08-19T07:20:10;24.40;56.90
19090;DHT22;9677;50.656;13.064;2022-08-19T07:22:44;24.40;56.90
19090;DHT22;9677;50.656;13.064;2022-08-19T07:25:13;24.40;56.90
19090;DHT22;9677;50.656;13.064;2022-08-19T07:27:44;24.40;57.00
19090;DHT22;9677;50.656;13.064;2022-08-19T07:30:20;24.40;57.00
19090;DHT22;9677;50.656;13.064;2022-08-19T07:32:52;24.40;56.90
19090;DHT22;9677;50.656;13.064;2022-08-19T07:35:23;24.40;56.90
19090;DHT22;9677;50.656;13.064;2022-08-19T07:37:53;24.40;56.90
19090;DHT22;9677;50.656;13.064;2022-08-19T07:40:22;24.40;56.80
19090;DHT22;9677;50.656;13.064;2022-08-19T07:42:51;24.40;57.10
19090;DHT22;9677;50.656;13.064;2022-08-19T07:45:20;24.40;57.00
19090;DHT22;9677;50.656;13.064;2022-08-19T07:47:53;24.40;57.00
19090;DHT22;9677;50.656;13.064;2022-08-19T07:50:23;24.50;56.90
19090;DHT22;9677;50.656;13.064;2022-08-19T07:52:53;24.30;56.70
19090;DHT22;9677;50.656;13.064;2022-08-19T07:55:24;24.50;56.80
19090;DHT22;9677;50.656;13.064;2022-08-19T07:58:10;24.50;57.10
19090;DHT22;9677;50.656;13.064;2022-08-19T08:00:41;24.50;57.70
19090;DHT22;9677;50.656;13.064;2022-08-19T08:03:12;24.50;57.00
19090;DHT22;9677;50.656;13.064;2022-08-19T08:05:52;24.50;57.10
19090;DHT22;9677;50.656;13.064;2022-08-19T08:08:41;24.50;57.00
19090;DHT22;9677;50.656;13.064;2022-08-19T08:15:18;24.50;57.70
19090;DHT22;9677;50.656;13.064;2022-08-19T08:21:59;24.50;57.50
19090;DHT22;9677;50.656;13.064;2022-08-19T08:24:52;24.40;57.20
19090;DHT22;9677;50.656;13.064;2022-08-19T08:34:43;24.50;57.70
19090;DHT22;9677;50.656;13.064;2022-08-19T08:41:43;24.50;57.50
19090;DHT22;9677;50.656;13.064;2022-08-19T08:44:36;24.50;57.80
19090;DHT22;9677;50.656;13.064;2022-08-19T08:48:18;24.60;57.40
19090;DHT22;9677;50.656;13.064;2022-08-19T08:51:14;24.60;57.90
19090;DHT22;9677;50.656;13.064;2022-08-19T08:53:55;24.40;57.30
19090;DHT22;9677;50.656;13.064;2022-08-19T08:56:49;24.40;57.20
19090;DHT22;9677;50.656;13.064;2022-08-19T09:00:08;24.60;58.10
19090;DHT22;9677;50.656;13.064;2022-08-19T09:03:18;24.70;58.00
19090;DHT22;9677;50.656;13.064;2022-08-19T09:06:03;24.60;57.50
19090;DHT22;9677;50.656;13.064;2022-08-19T09:09:03;24.60;57.70
19090;DHT22;9677;50.656;13.064;2022-08-19T09:15:13;24.60;58.10
19090;DHT22;9677;50.656;13.064;2022-08-19T09:18:20;24.50;57.80
19090;DHT22;9677;50.656;13.064;2022-08-19T09:21:29;24.50;57.50
19090;DHT22;9677;50.656;13.064;2022-08-19T09:24:32;24.50;57.50
19090;DHT22;9677;50.656;13.064;2022-08-19T09:27:25;24.60;57.50
19090;DHT22;9677;50.656;13.064;2022-08-19T09:33:21;24.70;58.30
19090;DHT22;9677;50.656;13.064;2022-08-19T09:36:03;24.70;57.90
19090;DHT22;9677;50.656;13.064;2022-08-19T09:39:01;24.60;58.30
19090;DHT22;9677;50.656;13.064;2022-08-19T09:41:59;24.80;58.00
19090;DHT22;9677;50.656;13.064;2022-08-19T09:44:57;24.80;58.30
19090;DHT22;9677;50.656;13.064;2022-08-19T09:47:31;24.90;57.90
19090;DHT22;9677;50.656;13.064;2022-08-19T09:50:09;24.90;57.90
19090;DHT22;9677;50.656;13.064;2022-08-19T09:52:42;24.90;58.00
19090;DHT22;9677;50.656;13.064;2022-08-19T09:55:25;25.00;57.30
19090;DHT22;9677;50.656;13.064;2022-08-19T09:57:59;25.00;57.90
19090;DHT22;9677;50.656;13.064;2022-08-19T10:00:29;25.00;57.90
19090;DHT22;9677;50.656;13.064;2022-08-19T10:02:59;25.00;57.70
19090;DHT22;9677;50.656;13.064;2022-08-19T10:05:30;25.20;57.80
19090;DHT22;9677;50.656;13.064;2022-08-19T10:08:24;25.10;57.80
19090;DHT22;9677;50.656;13.064;2022-08-19T10:11:23;25.10;57.60
19090;DHT22;9677;50.656;13.064;2022-08-19T10:14:34;25.20;57.70
19090;DHT22;9677;50.656;13.064;2022-08-19T10:17:06;25.20;57.30
19090;DHT22;9677;50.656;13.064;2022-08-19T10:19:47;25.20;57.30
19090;DHT22;9677;50.656;13.064;2022-08-19T10:22:28;25.30;57.20
19090;DHT22;9677;50.656;13.064;2022-08-19T10:25:07;25.30;57.20
19090;DHT22;9677;50.656;13.064;2022-08-19T10:27:37;25.30;57.20
19090;DHT22;9677;50.656;13.064;2022-08-19T10:30:06;25.30;56.90
19090;DHT22;9677;50.656;13.064;2022-08-19T10:32:39;25.30;57.20
19090;DHT22;9677;50.656;13.064;2022-08-19T10:35:13;25.30;57.10
19090;DHT22;9677;50.656;13.064;2022-08-19T10:38:09;25.30;57.10
19090;DHT22;9677;50.656;13.064;2022-08-19T10:40:38;25.30;57.00
19090;DHT22;9677;50.656;13.064;2022-08-19T10:43:06;25.30;57.00
19090;DHT22;9677;50.656;13.064;2022-08-19T10:45:35;25.40;57.20
19090;DHT22;9677;50.656;13.064;2022-08-19T10:48:18;25.30;57.20
19090;DHT22;9677;50.656;13.064;2022-08-19T10:50:47;25.40;57.20
19090;DHT22;9677;50.656;13.064;2022-08-19T10:53:35;25.40;57.10
19090;DHT22;9677;50.656;13.064;2022-08-19T10:56:05;25.50;57.30
19090;DHT22;9677;50.656;13.064;2022-08-19T10:58:51;25.60;57.30
19090;DHT22;9677;50.656;13.064;2022-08-19T11:01:20;25.40;57.10
19090;DHT22;9677;50.656;13.064;2022-08-19T11:03:48;25.50;57.10
19090;DHT22;9677;50.656;13.064;2022-08-19T11:06:17;25.40;57.00
19090;DHT22;9677;50.656;13.064;2022-08-19T11:08:47;25.50;57.10
19090;DHT22;9677;50.656;13.064;2022-08-19T11:11:15;25.60;57.20
19090;DHT22;9677;50.656;13.064;2022-08-19T11:13:44;25.60;57.10
19090;DHT22;9677;50.656;13.064;2022-08-19T11:16:15;25.60;57.10
19090;DHT22;9677;50.656;13.064;2022-08-19T11:18:46;25.70;57.00
19090;DHT22;9677;50.656;13.064;2022-08-19T11:21:21;25.70;57.00
19090;DHT22;9677;50.656;13.064;2022-08-19T11:23:56;25.70;56.80
19090;DHT22;9677;50.656;13.064;2022-08-19T11:26:26;25.90;56.80
19090;DHT22;9677;50.656;13.064;2022-08-19T11:28:55;25.70;57.20
19090;DHT22;9677;50.656;13.064;2022-08-19T11:31:26;25.70;56.60
19090;DHT22;9677;50.656;13.064;2022-08-19T11:33:58;25.70;56.60
19090;DHT22;9677;50.656;13.064;2022-08-19T11:36:28;25.70;56.60
19090;DHT22;9677;50.656;13.064;2022-08-19T11:39:00;25.70;56.50
19090;DHT22;9677;50.656;13.064;2022-08-19T11:41:28;25.60;56.50
19090;DHT22;9677;50.656;13.064;2022-08-19T11:43:57;25.60;56.40
19090;DHT22;9677;50.656;13.064;2022-08-19T11:46:26;25.60;56.30
19090;DHT22;9677;50.656;13.064;2022-08-19T11:48:56;25.60;56.30
19090;DHT22;9677;50.656;13.064;2022-08-19T11:51:27;25.60;56.90
19090;DHT22;9677;50.656;13.064;2022-08-19T11:53:57;25.50;56.40
19090;DHT22;9677;50.656;13.064;2022-08-19T11:56:28;25.40;56.30
19090;DHT22;9677;50.656;13.064;2022-08-19T11:58:56;25.40;56.40
19090;DHT22;9677;50.656;13.064;2022-08-19T12:01:26;25.40;56.40
19090;DHT22;9677;50.656;13.064;2022-08-19T12:03:56;25.40;56.50
19090;DHT22;9677;50.656;13.064;2022-08-19T12:06:27;25.40;56.50
19090;DHT22;9677;50.656;13.064;2022-08-19T12:08:57;25.30;56.60
19090;DHT22;9677;50.656;13.064;2022-08-19T12:11:28;25.30;56.60
19090;DHT22;9677;50.656;13.064;2022-08-19T12:14:00;25.30;56.60
19090;DHT22;9677;50.656;13.064;2022-08-19T12:16:30;25.30;56.60
19090;DHT22;9677;50.656;13.064;2022-08-19T12:19:00;25.20;56.60
19090;DHT22;9677;50.656;13.064;2022-08-19T12:21:33;25.30;56.70
19090;DHT22;9677;50.656;13.064;2022-08-19T12:24:04;25.20;56.70
19090;DHT22;9677;50.656;13.064;2022-08-19T12:26:35;25.30;56.80
19090;DHT22;9677;50.656;13.064;2022-08-19T12:29:18;25.50;56.90
19090;DHT22;9677;50.656;13.064;2022-08-19T12:31:50;25.30;56.80
19090;DHT22;9677;50.656;13.064;2022-08-19T12:34:18;25.30;56.80
19090;DHT22;9677;50.656;13.064;2022-08-19T12:36:47;25.30;56.80
19090;DHT22;9677;50.656;13.064;2022-08-19T12:39:16;25.30;56.70
19090;DHT22;9677;50.656;13.064;2022-08-19T12:41:46;25.30;56.70
19090;DHT22;9677;50.656;13.064;2022-08-19T12:44:20;25.40;56.80
19090;DHT22;9677;50.656;13.064;2022-08-19T12:46:58;25.30;56.80
19090;DHT22;9677;50.656;13.064;2022-08-19T12:49:27;25.20;56.70
19090;DHT22;9677;50.656;13.064;2022-08-19T12:52:16;25.30;56.80
19090;DHT22;9677;50.656;13.064;2022-08-19T12:54:50;25.30;56.80
19090;DHT22;9677;50.656;13.064;2022-08-19T12:57:23;25.30;57.00
19090;DHT22;9677;50.656;13.064;2022-08-19T13:00:01;25.30;57.10
19090;DHT22;9677;50.656;13.064;2022-08-19T13:02:37;25.20;57.50
19090;DHT22;9677;50.656;13.064;2022-08-19T13:05:07;25.20;56.90
19090;DHT22;9677;50.656;13.064;2022-08-19T13:07:38;25.20;57.10
19090;DHT22;9677;50.656;13.064;2022-08-19T13:10:08;25.20;57.70
19090;DHT22;9677;50.656;13.064;2022-08-19T13:12:40;25.20;57.10
19090;DHT22;9677;50.656;13.064;2022-08-19T13:15:09;25.20;57.20
19090;DHT22;9677;50.656;13.064;2022-08-19T13:17:41;25.20;57.20
19090;DHT22;9677;50.656;13.064;2022-08-19T13:20:11;25.20;57.20
19090;DHT22;9677;50.656;13.064;2022-08-19T13:22:39;25.20;57.20
19090;DHT22;9677;50.656;13.064;2022-08-19T13:25:08;25.20;57.20
19090;DHT22;9677;50.656;13.064;2022-08-19T13:27:38;25.20;57.30
19090;DHT22;9677;50.656;13.064;2022-08-19T13:30:10;25.20;57.30
19090;DHT22;9677;50.656;13.064;2022-08-19T13:32:57;25.20;57.40
19090;DHT22;9677;50.656;13.064;2022-08-19T13:35:39;25.20;57.40
19090;DHT22;9677;50.656;13.064;2022-08-19T13:38:10;25.10;57.40
19090;DHT22;9677;50.656;13.064;2022-08-19T13:40:40;25.10;57.40
19090;DHT22;9677;50.656;13.064;2022-08-19T13:43:10;25.20;57.50
19090;DHT22;9677;50.656;13.064;2022-08-19T13:45:50;25.10;57.50
19090;DHT22;9677;50.656;13.064;2022-08-19T13:48:24;25.30;57.50
19090;DHT22;9677;50.656;13.064;2022-08-19T13:50:54;25.10;57.40
19090;DHT22;9677;50.656;13.064;2022-08-19T13:53:22;25.10;57.30
19090;DHT22;9677;50.656;13.064;2022-08-19T13:55:51;25.10;57.30
19090;DHT22;9677;50.656;13.064;2022-08-19T13:58:22;25.10;57.40
19090;DHT22;9677;50.656;13.064;2022-08-19T14:00:50;25.10;57.40
19090;DHT22;9677;50.656;13.064;2022-08-19T14:03:19;25.10;57.30
19090;DHT22;9677;50.656;13.064;2022-08-19T14:05:47;25.00;57.20
19090;DHT22;9677;50.656;13.064;2022-08-19T14:08:16;25.10;57.30
19090;DHT22;9677;50.656;13.064;2022-08-19T14:10:45;24.90;57.20
19090;DHT22;9677;50.656;13.064;2022-08-19T14:13:16;24.90;57.30
19090;DHT22;9677;50.656;13.064;2022-08-19T14:15:46;25.00;57.40
19090;DHT22;9677;50.656;13.064;2022-08-19T14:18:15;24.90;57.40
19090;DHT22;9677;50.656;13.064;2022-08-19T14:20:45;24.80;57.40
19090;DHT22;9677;50.656;13.064;2022-08-19T14:23:13;24.90;57.50
19090;DHT22;9677;50.656;13.064;2022-08-19T14:25:43;24.80;57.50
19090;DHT22;9677;50.656;13.064;2022-08-19T14:28:11;24.80;57.50
19090;DHT22;9677;50.656;13.064;2022-08-19T14:30:39;24.80;57.50
19090;DHT22;9677;50.656;13.064;2022-08-19T14:33:09;24.70;57.50
19090;DHT22;9677;50.656;13.064;2022-08-19T14:35:38;24.70;57.60
19090;DHT22;9677;50.656;13.064;2022-08-19T14:38:16;24.70;57.60
19090;DHT22;9677;50.656;13.064;2022-08-19T14:41:47;24.70;57.80
19090;DHT22;9677;50.656;13.064;2022-08-19T14:44:16;24.70;57.70
19090;DHT22;9677;50.656;13.064;2022-08-19T14:46:45;24.70;57.80
19090;DHT22;9677;50.656;13.064;2022-08-19T14:49:16;24.70;57.80
19090;DHT22;9677;50.656;13.064;2022-08-19T14:51:45;24.70;57.90
19090;DHT22;9677;50.656;13.064;2022-08-19T14:54:14;24.70;57.80
19090;DHT22;9677;50.656;13.064;2022-08-19T14:56:42;24.60;57.90
19090;DHT22;9677;50.656;13.064;2022-08-19T14:59:11;24.70;57.90
19090;DHT22;9677;50.656;13.064;2022-08-19T15:01:39;24.70;57.90
19090;DHT22;9677;50.656;13.064;2022-08-19T15:04:08;24.70;57.80
19090;DHT22;9677;50.656;13.064;2022-08-19T15:06:38;24.60;58.30
19090;DHT22;9677;50.656;13.064;2022-08-19T15:09:09;24.70;57.90
19090;DHT22;9677;50.656;13.064;2022-08-19T15:11:38;24.70;57.90
19090;DHT22;9677;50.656;13.064;2022-08-19T15:14:06;24.60;57.80
19090;DHT22;9677;50.656;13.064;2022-08-19T15:16:36;24.70;57.90
19090;DHT22;9677;50.656;13.064;2022-08-19T15:19:06;24.70;57.90
19090;DHT22;9677;50.656;13.064;2022-08-19T15:21:34;24.60;57.80
19090;DHT22;9677;50.656;13.064;2022-08-19T15:24:05;24.80;58.00
19090;DHT22;9677;50.656;13.064;2022-08-19T15:26:34;24.60;58.00
19090;DHT22;9677;50.656;13.064;2022-08-19T15:29:03;24.70;57.90
19090;DHT22;9677;50.656;13.064;2022-08-19T15:31:32;24.70;57.90
19090;DHT22;9677;50.656;13.064;2022-08-19T15:34:05;24.60;57.90
19090;DHT22;9677;50.656;13.064;2022-08-19T15:36:34;24.70;58.50
19090;DHT22;9677;50.656;13.064;2022-08-19T15:39:05;24.80;58.00
19090;DHT22;9677;50.656;13.064;2022-08-19T15:41:36;24.70;58.00
19090;DHT22;9677;50.656;13.064;2022-08-19T15:44:09;24.70;57.90
19090;DHT22;9677;50.656;13.064;2022-08-19T15:46:40;24.70;58.00
19090;DHT22;9677;50.656;13.064;2022-08-19T15:49:11;24.70;57.90
19090;DHT22;9677;50.656;13.064;2022-08-19T15:51:47;24.80;58.00
19090;DHT22;9677;50.656;13.064;2022-08-19T15:54:20;24.60;57.80
19090;DHT22;9677;50.656;13.064;2022-08-19T15:56:49;24.70;57.90
19090;DHT22;9677;50.656;13.064;2022-08-19T15:59:36;24.60;57.80
19090;DHT22;9677;50.656;13.064;2022-08-19T16:02:30;24.60;57.80
19090;DHT22;9677;50.656;13.064;2022-08-19T16:05:23;24.60;57.90
19090;DHT22;9677;50.656;13.064;2022-08-19T16:08:18;24.60;58.00
19090;DHT22;9677;50.656;13.064;2022-08-19T16:10:48;24.50;57.80
19090;DHT22;9677;50.656;13.064;2022-08-19T16:13:16;24.50;58.00
19090;DHT22;9677;50.656;13.064;2022-08-19T16:15:45;24.50;58.00
19090;DHT22;9677;50.656;13.064;2022-08-19T16:18:13;24.40;58.00
19090;DHT22;9677;50.656;13.064;2022-08-19T16:20:41;24.60;58.10
19090;DHT22;9677;50.656;13.064;2022-08-19T16:23:12;24.40;58.10
19090;DHT22;9677;50.656;13.064;2022-08-19T16:25:41;24.40;58.10
19090;DHT22;9677;50.656;13.064;2022-08-19T16:28:10;24.50;58.20
19090;DHT22;9677;50.656;13.064;2022-08-19T16:30:40;24.40;58.20
19090;DHT22;9677;50.656;13.064;2022-08-19T16:33:14;24.40;58.20
19090;DHT22;9677;50.656;13.064;2022-08-19T16:35:49;24.40;58.20
19090;DHT22;9677;50.656;13.064;2022-08-19T16:38:27;24.50;58.30
19090;DHT22;9677;50.656;13.064;2022-08-19T16:40:56;24.40;58.30
19090;DHT22;9677;50.656;13.064;2022-08-19T16:43:28;24.40;58.20
19090;DHT22;9677;50.656;13.064;2022-08-19T16:45:58;24.40;58.30
19090;DHT22;9677;50.656;13.064;2022-08-19T16:48:29;24.40;58.20
19090;DHT22;9677;50.656;13.064;2022-08-19T16:50:58;24.40;58.20
19090;DHT22;9677;50.656;13.064;2022-08-19T16:53:28;24.40;58.10
19090;DHT22;9677;50.656;13.064;2022-08-19T16:55:58;24.40;58.00
19090;DHT22;9677;50.656;13.064;2022-08-19T16:58:28;24.40;58.00
19090;DHT22;9677;50.656;13.064;2022-08-19T17:01:02;24.30;58.10
19090;DHT22;9677;50.656;13.064;2022-08-19T17:03:33;24.30;58.00
19090;DHT22;9677;50.656;13.064;2022-08-19T17:06:08;24.30;58.10
19090;DHT22;9677;50.656;13.064;2022-08-19T17:08:47;24.20;58.20
19090;DHT22;9677;50.656;13.064;2022-08-19T17:11:16;24.30;58.20
19090;DHT22;9677;50.656;13.064;2022-08-19T17:13:47;24.30;58.20
19090;DHT22;9677;50.656;13.064;2022-08-19T17:16:20;24.30;58.40
19090;DHT22;9677;50.656;13.064;2022-08-19T17:18:50;24.20;58.30
19090;DHT22;9677;50.656;13.064;2022-08-19T17:21:20;24.20;58.20
19090;DHT22;9677;50.656;13.064;2022-08-19T17:23:49;24.20;58.30
19090;DHT22;9677;50.656;13.064;2022-08-19T17:26:17;24.20;58.30
19090;DHT22;9677;50.656;13.064;2022-08-19T17:28:49;24.20;58.30